CheckWX is a tool to help pilots better visualize weather data.  It is not intended as a substitute for an official pre-flight weather briefing.

09:27:29 UTC

KLAF METAR
Purdue University Airport
Lafayette, Indiana, USA
Current

33 mins ago

KLAF 170854Z AUTO 00000KT 9SM CLR M03/M04 A3017 RMK AO2 SLP220 T10281044 56013
Observed
Nov-17 @ 08:54 UTC
Visibility
9 SM
Flight Rules
VFR
Cloud Levels
  • Clear skies
Temperature
-3°C / 27°F
Dewpoint
-4°C / 25°F
Humidity
93%
Altimeter
30.17" Hg
Pressure
1021.72 hPa
Previous

2 hours ago

KLAF 170754Z AUTO 06004KT 10SM CLR M03/M04 A3018 RMK AO2 SLP223 T10281044
Observed
Nov-17 @ 07:54 UTC
Wind
  • 060° at 4 KTS
Visibility
10 SM
Flight Rules
VFR
Cloud Levels
  • Clear skies
Temperature
-3°C / 27°F
Dewpoint
-4°C / 25°F
Humidity
93%
Altimeter
30.18" Hg
Pressure
1022.02 hPa
Previous

3 hours ago

KLAF 170654Z AUTO 08004KT 10SM CLR M03/M04 A3018 RMK AO2 SLP225 T10281044
Observed
Nov-17 @ 06:54 UTC
Wind
  • 080° at 4 KTS
Visibility
10 SM
Flight Rules
VFR
Cloud Levels
  • Clear skies
Temperature
-3°C / 27°F
Dewpoint
-4°C / 25°F
Humidity
93%
Altimeter
30.18" Hg
Pressure
1022.02 hPa